sensor_id;sensor_type;location;lat;lon;timestamp;pressure;altitude;pressure_sealevel;temperature;humidity
63339;BME280;70568;51.378;-1.342;2023-09-12T00:01:04;99946.10;;;18.35;32.10
63339;BME280;70568;51.378;-1.342;2023-09-12T00:03:32;99938.66;;;20.27;30.64
63339;BME280;70568;51.378;-1.342;2023-09-12T00:06:00;99941.36;;;20.11;31.65
63339;BME280;70568;51.378;-1.342;2023-09-12T00:08:27;99942.56;;;18.27;32.45
63339;BME280;70568;51.378;-1.342;2023-09-12T00:11:00;99938.81;;;19.05;31.39
63339;BME280;70568;51.378;-1.342;2023-09-12T00:13:27;99936.69;;;20.17;31.37
63339;BME280;70568;51.378;-1.342;2023-09-12T00:15:54;99937.04;;;19.41;31.95
63339;BME280;70568;51.378;-1.342;2023-09-12T00:18:21;99931.12;;;19.05;30.85
63339;BME280;70568;51.378;-1.342;2023-09-12T00:20:49;99934.10;;;19.69;31.15
63339;BME280;70568;51.378;-1.342;2023-09-12T00:23:17;99934.35;;;18.89;31.79
63339;BME280;70568;51.378;-1.342;2023-09-12T00:25:43;99931.88;;;19.02;32.21
63339;BME280;70568;51.378;-1.342;2023-09-12T00:28:11;99930.28;;;19.20;32.44
63339;BME280;70568;51.378;-1.342;2023-09-12T00:30:37;99930.94;;;17.87;33.22
63339;BME280;70568;51.378;-1.342;2023-09-12T00:33:05;99933.72;;;18.04;34.26
63339;BME280;70568;51.378;-1.342;2023-09-12T00:35:32;99932.57;;;18.06;34.75
63339;BME280;70568;51.378;-1.342;2023-09-12T00:37:59;99931.09;;;18.36;34.97
63339;BME280;70568;51.378;-1.342;2023-09-12T00:40:25;99935.55;;;17.71;34.65
63339;BME280;70568;51.378;-1.342;2023-09-12T00:42:53;99937.18;;;17.16;34.54
63339;BME280;70568;51.378;-1.342;2023-09-12T00:45:19;99938.47;;;17.77;34.47
63339;BME280;70568;51.378;-1.342;2023-09-12T00:47:47;99937.41;;;17.76;33.97
63339;BME280;70568;51.378;-1.342;2023-09-12T00:50:14;99936.70;;;18.26;33.65
63339;BME280;70568;51.378;-1.342;2023-09-12T00:52:43;99940.12;;;18.72;33.48
63339;BME280;70568;51.378;-1.342;2023-09-12T00:55:11;99940.23;;;17.89;33.81
63339;BME280;70568;51.378;-1.342;2023-09-12T00:57:38;99939.97;;;17.17;34.54
63339;BME280;70568;51.378;-1.342;2023-09-12T01:00:07;99939.58;;;18.58;34.20
63339;BME280;70568;51.378;-1.342;2023-09-12T01:02:37;99938.69;;;17.66;34.02
63339;BME280;70568;51.378;-1.342;2023-09-12T01:05:06;99934.91;;;17.50;34.71
63339;BME280;70568;51.378;-1.342;2023-09-12T01:07:34;99927.82;;;18.29;34.05
63339;BME280;70568;51.378;-1.342;2023-09-12T01:10:01;99924.36;;;18.31;33.24
63339;BME280;70568;51.378;-1.342;2023-09-12T01:12:29;99922.91;;;19.22;31.94
63339;BME280;70568;51.378;-1.342;2023-09-12T01:14:55;99922.59;;;18.65;32.28
63339;BME280;70568;51.378;-1.342;2023-09-12T01:17:22;99924.42;;;19.85;32.93
63339;BME280;70568;51.378;-1.342;2023-09-12T01:19:49;99922.28;;;17.89;33.44
63339;BME280;70568;51.378;-1.342;2023-09-12T01:22:30;99925.30;;;18.30;33.45
63339;BME280;70568;51.378;-1.342;2023-09-12T01:25:13;99927.72;;;18.08;33.72
63339;BME280;70568;51.378;-1.342;2023-09-12T01:27:46;99923.18;;;18.32;33.50
63339;BME280;70568;51.378;-1.342;2023-09-12T01:30:17;99927.11;;;19.16;33.24
63339;BME280;70568;51.378;-1.342;2023-09-12T01:32:44;99926.60;;;18.49;33.65
63339;BME280;70568;51.378;-1.342;2023-09-12T01:35:12;99924.08;;;18.39;33.85
63339;BME280;70568;51.378;-1.342;2023-09-12T01:37:38;99927.96;;;18.31;34.38
63339;BME280;70568;51.378;-1.342;2023-09-12T01:40:07;99925.26;;;17.75;34.90
63339;BME280;70568;51.378;-1.342;2023-09-12T01:42:38;99925.40;;;18.54;35.17
63339;BME280;70568;51.378;-1.342;2023-09-12T01:45:10;99925.46;;;18.19;35.54
63339;BME280;70568;51.378;-1.342;2023-09-12T01:47:38;99931.48;;;18.26;35.02
63339;BME280;70568;51.378;-1.342;2023-09-12T01:50:09;99930.86;;;16.40;35.68
63339;BME280;70568;51.378;-1.342;2023-09-12T01:52:38;99931.38;;;16.13;37.00
63339;BME280;70568;51.378;-1.342;2023-09-12T01:55:07;99927.88;;;17.06;36.16
63339;BME280;70568;51.378;-1.342;2023-09-12T01:57:35;99925.20;;;16.19;36.97
63339;BME280;70568;51.378;-1.342;2023-09-12T02:00:02;99926.95;;;17.46;37.83
63339;BME280;70568;51.378;-1.342;2023-09-12T02:02:29;99929.56;;;15.64;38.63
63339;BME280;70568;51.378;-1.342;2023-09-12T02:05:04;99926.80;;;15.84;38.58
63339;BME280;70568;51.378;-1.342;2023-09-12T02:07:37;99926.58;;;15.85;39.19
63339;BME280;70568;51.378;-1.342;2023-09-12T02:10:05;99930.16;;;15.67;40.43
63339;BME280;70568;51.378;-1.342;2023-09-12T02:12:32;99925.40;;;15.87;40.88
63339;BME280;70568;51.378;-1.342;2023-09-12T02:14:59;99926.31;;;16.24;39.38
63339;BME280;70568;51.378;-1.342;2023-09-12T02:17:26;99925.57;;;16.61;38.48
63339;BME280;70568;51.378;-1.342;2023-09-12T02:19:54;99927.54;;;16.73;37.75
63339;BME280;70568;51.378;-1.342;2023-09-12T02:22:22;99926.31;;;16.92;36.50
63339;BME280;70568;51.378;-1.342;2023-09-12T02:24:50;99924.47;;;18.32;35.15
63339;BME280;70568;51.378;-1.342;2023-09-12T02:27:17;99926.31;;;17.63;36.19
63339;BME280;70568;51.378;-1.342;2023-09-12T02:29:44;99928.99;;;16.46;37.97
63339;BME280;70568;51.378;-1.342;2023-09-12T02:32:10;99930.82;;;16.26;39.38
63339;BME280;70568;51.378;-1.342;2023-09-12T02:34:38;99930.39;;;15.69;39.62
63339;BME280;70568;51.378;-1.342;2023-09-12T02:37:06;99925.89;;;16.63;39.62
63339;BME280;70568;51.378;-1.342;2023-09-12T02:39:33;99926.97;;;16.15;39.23
63339;BME280;70568;51.378;-1.342;2023-09-12T02:41:59;99930.10;;;16.46;40.51
63339;BME280;70568;51.378;-1.342;2023-09-12T02:44:26;99933.91;;;15.13;41.48
63339;BME280;70568;51.378;-1.342;2023-09-12T02:46:53;99934.98;;;15.40;40.87
63339;BME280;70568;51.378;-1.342;2023-09-12T02:49:19;99933.48;;;15.61;41.15
63339;BME280;70568;51.378;-1.342;2023-09-12T02:51:46;99931.83;;;16.44;40.77
63339;BME280;70568;51.378;-1.342;2023-09-12T02:54:12;99927.77;;;14.59;41.27
63339;BME280;70568;51.378;-1.342;2023-09-12T02:56:38;99929.07;;;14.40;43.08
63339;BME280;70568;51.378;-1.342;2023-09-12T02:59:06;99929.23;;;15.03;41.41
63339;BME280;70568;51.378;-1.342;2023-09-12T03:01:32;99924.80;;;16.31;39.81
63339;BME280;70568;51.378;-1.342;2023-09-12T03:03:59;99921.80;;;16.53;38.50
63339;BME280;70568;51.378;-1.342;2023-09-12T03:06:26;99922.97;;;16.54;38.29
63339;BME280;70568;51.378;-1.342;2023-09-12T03:08:52;99925.86;;;16.60;38.98
63339;BME280;70568;51.378;-1.342;2023-09-12T03:11:19;99926.81;;;15.75;39.74
63339;BME280;70568;51.378;-1.342;2023-09-12T03:13:45;99925.76;;;16.24;40.51
63339;BME280;70568;51.378;-1.342;2023-09-12T03:16:12;99922.51;;;15.92;40.23
63339;BME280;70568;51.378;-1.342;2023-09-12T03:18:40;99922.23;;;15.78;41.62
63339;BME280;70568;51.378;-1.342;2023-09-12T03:21:07;99919.79;;;14.85;41.32
63339;BME280;70568;51.378;-1.342;2023-09-12T03:23:33;99922.41;;;15.89;40.69
63339;BME280;70568;51.378;-1.342;2023-09-12T03:26:01;99922.00;;;16.94;40.66
63339;BME280;70568;51.378;-1.342;2023-09-12T03:28:28;99915.30;;;16.63;39.92
63339;BME280;70568;51.378;-1.342;2023-09-12T03:31:03;99915.26;;;15.86;40.14
63339;BME280;70568;51.378;-1.342;2023-09-12T03:33:30;99914.55;;;15.33;40.74
63339;BME280;70568;51.378;-1.342;2023-09-12T03:35:57;99908.36;;;16.19;40.29
63339;BME280;70568;51.378;-1.342;2023-09-12T03:38:23;99907.18;;;15.47;39.98
63339;BME280;70568;51.378;-1.342;2023-09-12T03:40:50;99902.48;;;16.12;38.82
63339;BME280;70568;51.378;-1.342;2023-09-12T03:43:16;99902.53;;;16.61;37.64
63339;BME280;70568;51.378;-1.342;2023-09-12T03:45:42;99903.29;;;17.58;37.62
63339;BME280;70568;51.378;-1.342;2023-09-12T03:48:09;99903.71;;;16.46;37.39
63339;BME280;70568;51.378;-1.342;2023-09-12T03:50:35;99906.18;;;18.28;35.48
63339;BME280;70568;51.378;-1.342;2023-09-12T03:53:02;99906.09;;;18.60;35.53
63339;BME280;70568;51.378;-1.342;2023-09-12T03:55:29;99902.13;;;17.61;35.61
63339;BME280;70568;51.378;-1.342;2023-09-12T03:57:56;99900.24;;;16.99;34.45
63339;BME280;70568;51.378;-1.342;2023-09-12T04:00:24;99901.89;;;17.14;32.85
63339;BME280;70568;51.378;-1.342;2023-09-12T04:02:51;99896.43;;;17.94;32.85
63339;BME280;70568;51.378;-1.342;2023-09-12T04:05:18;99893.80;;;17.82;31.29
63339;BME280;70568;51.378;-1.342;2023-09-12T04:07:44;99894.79;;;19.17;30.81
63339;BME280;70568;51.378;-1.342;2023-09-12T04:10:11;99896.32;;;18.52;30.94
63339;BME280;70568;51.378;-1.342;2023-09-12T04:12:37;99891.80;;;19.07;30.36
63339;BME280;70568;51.378;-1.342;2023-09-12T04:15:06;99889.74;;;17.96;31.00
63339;BME280;70568;51.378;-1.342;2023-09-12T04:17:33;99890.69;;;19.36;30.13
63339;BME280;70568;51.378;-1.342;2023-09-12T04:19:59;99890.20;;;18.93;30.49
63339;BME280;70568;51.378;-1.342;2023-09-12T04:22:26;99897.34;;;18.18;32.12
63339;BME280;70568;51.378;-1.342;2023-09-12T04:24:52;99893.34;;;17.36;31.67
63339;BME280;70568;51.378;-1.342;2023-09-12T04:27:18;99890.34;;;18.26;30.31
63339;BME280;70568;51.378;-1.342;2023-09-12T04:29:45;99888.69;;;17.59;31.26
63339;BME280;70568;51.378;-1.342;2023-09-12T04:32:12;99887.64;;;17.27;31.33
63339;BME280;70568;51.378;-1.342;2023-09-12T04:34:41;99883.74;;;18.14;30.43
63339;BME280;70568;51.378;-1.342;2023-09-12T04:37:08;99881.68;;;19.83;29.63
63339;BME280;70568;51.378;-1.342;2023-09-12T04:39:35;99883.37;;;19.74;31.20
63339;BME280;70568;51.378;-1.342;2023-09-12T04:42:01;99885.54;;;17.76;32.54
63339;BME280;70568;51.378;-1.342;2023-09-12T04:44:27;99884.00;;;17.52;33.25
63339;BME280;70568;51.378;-1.342;2023-09-12T04:46:54;99886.55;;;16.91;32.96
63339;BME280;70568;51.378;-1.342;2023-09-12T04:49:21;99886.41;;;17.78;32.15
63339;BME280;70568;51.378;-1.342;2023-09-12T04:51:48;99889.09;;;19.34;31.33
63339;BME280;70568;51.378;-1.342;2023-09-12T04:54:14;99887.43;;;17.40;31.21
63339;BME280;70568;51.378;-1.342;2023-09-12T04:56:40;99887.42;;;18.65;31.01
63339;BME280;70568;51.378;-1.342;2023-09-12T04:59:07;99885.28;;;19.14;31.07
63339;BME280;70568;51.378;-1.342;2023-09-12T05:01:33;99885.20;;;16.36;31.67
63339;BME280;70568;51.378;-1.342;2023-09-12T05:03:59;99883.05;;;16.64;31.55
63339;BME280;70568;51.378;-1.342;2023-09-12T05:06:26;99879.38;;;17.67;30.82
63339;BME280;70568;51.378;-1.342;2023-09-12T05:08:52;99874.72;;;15.94;30.58
63339;BME280;70568;51.378;-1.342;2023-09-12T05:11:19;99874.60;;;17.62;30.46
63339;BME280;70568;51.378;-1.342;2023-09-12T05:13:45;99877.04;;;18.16;30.10
63339;BME280;70568;51.378;-1.342;2023-09-12T05:16:12;99873.56;;;17.73;29.75
63339;BME280;70568;51.378;-1.342;2023-09-12T05:18:38;99878.24;;;17.82;29.62
63339;BME280;70568;51.378;-1.342;2023-09-12T05:21:05;99881.46;;;18.63;28.87
63339;BME280;70568;51.378;-1.342;2023-09-12T05:23:33;99883.70;;;19.45;27.97
63339;BME280;70568;51.378;-1.342;2023-09-12T05:26:01;99883.61;;;20.97;27.86
63339;BME280;70568;51.378;-1.342;2023-09-12T05:28:29;99883.62;;;19.70;28.41
63339;BME280;70568;51.378;-1.342;2023-09-12T05:30:56;99884.17;;;19.84;28.67
63339;BME280;70568;51.378;-1.342;2023-09-12T05:33:23;99888.03;;;18.85;29.50
63339;BME280;70568;51.378;-1.342;2023-09-12T05:35:50;99886.21;;;19.59;29.23
63339;BME280;70568;51.378;-1.342;2023-09-12T05:38:17;99882.63;;;19.42;29.72
63339;BME280;70568;51.378;-1.342;2023-09-12T05:40:44;99882.40;;;18.68;30.35
63339;BME280;70568;51.378;-1.342;2023-09-12T05:43:10;99887.53;;;19.25;30.84
63339;BME280;70568;51.378;-1.342;2023-09-12T05:45:36;99889.64;;;17.77;30.81
63339;BME280;70568;51.378;-1.342;2023-09-12T05:48:04;99898.41;;;17.23;31.30
63339;BME280;70568;51.378;-1.342;2023-09-12T05:50:30;99896.80;;;17.68;30.67
63339;BME280;70568;51.378;-1.342;2023-09-12T05:52:56;99901.10;;;17.61;30.79
63339;BME280;70568;51.378;-1.342;2023-09-12T05:55:23;99898.95;;;17.72;30.20
63339;BME280;70568;51.378;-1.342;2023-09-12T05:57:49;99905.07;;;17.94;29.45
63339;BME280;70568;51.378;-1.342;2023-09-12T06:00:16;99905.83;;;20.19;28.65
63339;BME280;70568;51.378;-1.342;2023-09-12T06:02:43;99909.46;;;19.07;29.63
63339;BME280;70568;51.378;-1.342;2023-09-12T06:05:09;99914.16;;;18.97;30.30
63339;BME280;70568;51.378;-1.342;2023-09-12T06:07:36;99911.35;;;18.09;30.16
63339;BME280;70568;51.378;-1.342;2023-09-12T06:10:02;99911.06;;;16.93;30.21
63339;BME280;70568;51.378;-1.342;2023-09-12T06:12:29;99913.16;;;17.13;30.18
63339;BME280;70568;51.378;-1.342;2023-09-12T06:14:56;99911.02;;;17.88;29.68
63339;BME280;70568;51.378;-1.342;2023-09-12T06:17:22;99912.18;;;16.74;29.68
63339;BME280;70568;51.378;-1.342;2023-09-12T06:19:48;99912.09;;;17.52;29.51
63339;BME280;70568;51.378;-1.342;2023-09-12T06:22:15;99914.90;;;17.43;29.27
63339;BME280;70568;51.378;-1.342;2023-09-12T06:24:41;99913.35;;;17.60;29.18
63339;BME280;70568;51.378;-1.342;2023-09-12T06:27:08;99917.20;;;18.24;29.09
63339;BME280;70568;51.378;-1.342;2023-09-12T06:29:34;99922.79;;;18.43;28.56
63339;BME280;70568;51.378;-1.342;2023-09-12T06:32:01;99926.33;;;18.02;28.34
63339;BME280;70568;51.378;-1.342;2023-09-12T06:34:28;99927.82;;;18.30;28.61
63339;BME280;70568;51.378;-1.342;2023-09-12T06:36:54;99928.18;;;19.25;28.69
63339;BME280;70568;51.378;-1.342;2023-09-12T06:39:21;99928.48;;;18.38;28.95
63339;BME280;70568;51.378;-1.342;2023-09-12T06:41:47;99932.02;;;18.23;29.06
63339;BME280;70568;51.378;-1.342;2023-09-12T06:44:14;99929.56;;;17.44;28.92
63339;BME280;70568;51.378;-1.342;2023-09-12T06:46:40;99928.16;;;18.58;28.85
63339;BME280;70568;51.378;-1.342;2023-09-12T06:49:07;99928.37;;;18.30;28.32
63339;BME280;70568;51.378;-1.342;2023-09-12T06:51:33;99928.91;;;18.83;28.34
63339;BME280;70568;51.378;-1.342;2023-09-12T06:54:00;99928.60;;;19.08;28.49
63339;BME280;70568;51.378;-1.342;2023-09-12T06:56:26;99924.77;;;18.50;28.59
63339;BME280;70568;51.378;-1.342;2023-09-12T06:58:53;99922.64;;;19.52;28.68
63339;BME280;70568;51.378;-1.342;2023-09-12T07:01:19;99925.16;;;18.89;28.68
63339;BME280;70568;51.378;-1.342;2023-09-12T07:03:45;99924.23;;;18.60;28.71
63339;BME280;70568;51.378;-1.342;2023-09-12T07:06:12;99927.73;;;18.45;28.83
63339;BME280;70568;51.378;-1.342;2023-09-12T07:08:38;99931.37;;;18.76;28.70
63339;BME280;70568;51.378;-1.342;2023-09-12T07:11:05;99932.46;;;18.77;28.70
63339;BME280;70568;51.378;-1.342;2023-09-12T07:13:32;99935.31;;;17.68;28.64
63339;BME280;70568;51.378;-1.342;2023-09-12T07:16:00;99933.20;;;18.51;28.52
63339;BME280;70568;51.378;-1.342;2023-09-12T07:18:26;99937.43;;;19.63;27.96
63339;BME280;70568;51.378;-1.342;2023-09-12T07:20:57;99939.24;;;19.56;28.25
63339;BME280;70568;51.378;-1.342;2023-09-12T07:23:24;99939.45;;;20.13;28.22
63339;BME280;70568;51.378;-1.342;2023-09-12T07:25:50;99941.84;;;19.05;28.37
63339;BME280;70568;51.378;-1.342;2023-09-12T07:28:17;99945.36;;;18.84;28.62
63339;BME280;70568;51.378;-1.342;2023-09-12T07:30:45;99947.80;;;18.83;28.60
63339;BME280;70568;51.378;-1.342;2023-09-12T07:33:12;99951.32;;;20.56;27.78
63339;BME280;70568;51.378;-1.342;2023-09-12T07:35:38;99956.98;;;19.88;28.59
63339;BME280;70568;51.378;-1.342;2023-09-12T07:38:06;99955.70;;;19.15;28.35
63339;BME280;70568;51.378;-1.342;2023-09-12T07:40:33;99956.38;;;20.39;29.45
63339;BME280;70568;51.378;-1.342;2023-09-12T07:42:59;99956.28;;;19.01;29.97
63339;BME280;70568;51.378;-1.342;2023-09-12T07:45:26;99959.71;;;18.57;29.74
63339;BME280;70568;51.378;-1.342;2023-09-12T07:47:52;99966.02;;;18.62;30.42
63339;BME280;70568;51.378;-1.342;2023-09-12T07:50:18;99970.72;;;17.40;31.76
63339;BME280;70568;51.378;-1.342;2023-09-12T07:52:45;99969.16;;;18.48;30.79
63339;BME280;70568;51.378;-1.342;2023-09-12T07:55:12;99969.45;;;18.70;30.63
63339;BME280;70568;51.378;-1.342;2023-09-12T07:57:39;99971.83;;;18.63;31.20
63339;BME280;70568;51.378;-1.342;2023-09-12T08:00:08;99970.77;;;18.93;30.43
63339;BME280;70568;51.378;-1.342;2023-09-12T08:02:35;99979.16;;;19.28;31.43
63339;BME280;70568;51.378;-1.342;2023-09-12T08:05:02;99983.55;;;17.12;31.58
63339;BME280;70568;51.378;-1.342;2023-09-12T08:07:29;99977.42;;;18.05;30.31
63339;BME280;70568;51.378;-1.342;2023-09-12T08:09:57;99977.81;;;19.22;29.66
63339;BME280;70568;51.378;-1.342;2023-09-12T08:12:26;99980.46;;;20.44;30.74
63339;BME280;70568;51.378;-1.342;2023-09-12T08:14:54;99985.08;;;19.27;31.30
63339;BME280;70568;51.378;-1.342;2023-09-12T08:17:22;99987.66;;;16.47;33.28
63339;BME280;70568;51.378;-1.342;2023-09-12T08:19:49;99982.04;;;18.94;31.86
63339;BME280;70568;51.378;-1.342;2023-09-12T08:22:15;99981.91;;;16.89;32.92
63339;BME280;70568;51.378;-1.342;2023-09-12T08:24:43;99982.27;;;17.41;32.61
63339;BME280;70568;51.378;-1.342;2023-09-12T08:27:10;99982.25;;;19.02;31.75
63339;BME280;70568;51.378;-1.342;2023-09-12T08:29:36;99985.14;;;17.16;32.79
63339;BME280;70568;51.378;-1.342;2023-09-12T08:32:04;99981.30;;;18.27;32.08
63339;BME280;70568;51.378;-1.342;2023-09-12T08:34:31;99981.20;;;19.61;31.10
63339;BME280;70568;51.378;-1.342;2023-09-12T08:36:58;99984.31;;;17.91;33.68
63339;BME280;70568;51.378;-1.342;2023-09-12T08:39:26;99984.77;;;16.66;34.32
63339;BME280;70568;51.378;-1.342;2023-09-12T08:41:53;99988.81;;;18.08;32.74
63339;BME280;70568;51.378;-1.342;2023-09-12T08:44:21;99990.59;;;19.61;31.89
63339;BME280;70568;51.378;-1.342;2023-09-12T08:46:48;99987.26;;;18.12;33.31
63339;BME280;70568;51.378;-1.342;2023-09-12T08:49:15;99988.72;;;17.77;34.12
63339;BME280;70568;51.378;-1.342;2023-09-12T08:51:42;99989.52;;;18.28;36.17
63339;BME280;70568;51.378;-1.342;2023-09-12T08:54:09;99992.30;;;16.30;36.80
63339;BME280;70568;51.378;-1.342;2023-09-12T08:56:38;99993.03;;;15.76;35.88
63339;BME280;70568;51.378;-1.342;2023-09-12T08:59:07;99993.27;;;17.80;35.97
63339;BME280;70568;51.378;-1.342;2023-09-12T09:01:35;99990.81;;;17.50;35.19
63339;BME280;70568;51.378;-1.342;2023-09-12T09:04:04;99988.73;;;19.37;34.34
63339;BME280;70568;51.378;-1.342;2023-09-12T09:06:31;99987.21;;;17.45;34.42
63339;BME280;70568;51.378;-1.342;2023-09-12T09:09:00;99990.39;;;19.64;33.14
63339;BME280;70568;51.378;-1.342;2023-09-12T09:11:27;99990.18;;;16.47;34.09
63339;BME280;70568;51.378;-1.342;2023-09-12T09:13:53;99987.94;;;15.78;33.69
63339;BME280;70568;51.378;-1.342;2023-09-12T09:16:20;99988.85;;;18.57;32.09
63339;BME280;70568;51.378;-1.342;2023-09-12T09:18:52;99988.46;;;19.04;33.28
63339;BME280;70568;51.378;-1.342;2023-09-12T09:21:20;99988.83;;;17.91;34.76
63339;BME280;70568;51.378;-1.342;2023-09-12T09:23:47;99986.18;;;17.05;35.18
63339;BME280;70568;51.378;-1.342;2023-09-12T09:26:13;99993.87;;;12.39;38.46
63339;BME280;70568;51.378;-1.342;2023-09-12T09:28:40;99992.00;;;15.85;35.49
63339;BME280;70568;51.378;-1.342;2023-09-12T09:31:10;99991.74;;;15.16;35.51
63339;BME280;70568;51.378;-1.342;2023-09-12T09:33:38;99990.86;;;19.84;32.03
63339;BME280;70568;51.378;-1.342;2023-09-12T09:36:07;99989.69;;;19.03;33.50
63339;BME280;70568;51.378;-1.342;2023-09-12T09:38:35;99994.88;;;17.79;35.38
63339;BME280;70568;51.378;-1.342;2023-09-12T09:41:04;99995.97;;;18.56;36.99
63339;BME280;70568;51.378;-1.342;2023-09-12T09:43:32;99995.06;;;16.77;37.92
63339;BME280;70568;51.378;-1.342;2023-09-12T09:46:00;99995.61;;;15.85;38.37
63339;BME280;70568;51.378;-1.342;2023-09-12T09:48:27;99996.32;;;16.72;39.54
63339;BME280;70568;51.378;-1.342;2023-09-12T09:51:00;99994.54;;;16.79;39.48
63339;BME280;70568;51.378;-1.342;2023-09-12T09:53:27;99993.49;;;16.92;39.05
63339;BME280;70568;51.378;-1.342;2023-09-12T09:56:08;99993.14;;;14.95;38.74
63339;BME280;70568;51.378;-1.342;2023-09-12T09:58:35;99985.06;;;17.83;37.46
63339;BME280;70568;51.378;-1.342;2023-09-12T10:01:07;99985.14;;;17.79;37.63
63339;BME280;70568;51.378;-1.342;2023-09-12T10:03:36;99980.43;;;17.07;38.33
63339;BME280;70568;51.378;-1.342;2023-09-12T10:06:04;99980.24;;;15.64;38.05
63339;BME280;70568;51.378;-1.342;2023-09-12T10:08:32;99976.95;;;16.77;36.11
63339;BME280;70568;51.378;-1.342;2023-09-12T10:10:58;99979.62;;;15.95;38.25
63339;BME280;70568;51.378;-1.342;2023-09-12T10:13:26;99976.68;;;16.18;36.47
63339;BME280;70568;51.378;-1.342;2023-09-12T10:15:55;99974.51;;;18.19;33.06
63339;BME280;70568;51.378;-1.342;2023-09-12T10:18:25;99976.63;;;18.62;34.65
63339;BME280;70568;51.378;-1.342;2023-09-12T10:20:55;99975.25;;;18.29;34.41
63339;BME280;70568;51.378;-1.342;2023-09-12T10:23:30;99973.31;;;15.53;36.00
63339;BME280;70568;51.378;-1.342;2023-09-12T10:26:00;99972.11;;;16.87;33.60
63339;BME280;70568;51.378;-1.342;2023-09-12T10:28:28;99977.73;;;18.53;34.06
63339;BME280;70568;51.378;-1.342;2023-09-12T10:30:57;99972.96;;;16.96;33.92
63339;BME280;70568;51.378;-1.342;2023-09-12T10:33:25;99973.23;;;18.42;33.78
63339;BME280;70568;51.378;-1.342;2023-09-12T10:35:52;99974.28;;;18.21;32.39
63339;BME280;70568;51.378;-1.342;2023-09-12T10:38:21;99973.11;;;18.18;32.25
63339;BME280;70568;51.378;-1.342;2023-09-12T10:40:50;99973.49;;;18.50;31.91
63339;BME280;70568;51.378;-1.342;2023-09-12T10:43:20;99973.75;;;18.66;31.76
63339;BME280;70568;51.378;-1.342;2023-09-12T10:45:48;99970.51;;;17.67;32.31
63339;BME280;70568;51.378;-1.342;2023-09-12T10:48:16;99971.00;;;20.28;30.41
63339;BME280;70568;51.378;-1.342;2023-09-12T10:50:44;99969.52;;;20.51;31.04
63339;BME280;70568;51.378;-1.342;2023-09-12T10:53:12;99970.89;;;18.76;32.31
63339;BME280;70568;51.378;-1.342;2023-09-12T10:55:40;99965.99;;;17.52;33.08
63339;BME280;70568;51.378;-1.342;2023-09-12T10:58:09;99966.88;;;17.30;32.25
63339;BME280;70568;51.378;-1.342;2023-09-12T11:00:37;99963.39;;;17.68;31.61
63339;BME280;70568;51.378;-1.342;2023-09-12T11:03:36;99969.07;;;18.81;31.72
63339;BME280;70568;51.378;-1.342;2023-09-12T11:06:04;99964.72;;;18.81;31.57
63339;BME280;70568;51.378;-1.342;2023-09-12T11:08:35;99959.39;;;18.37;33.06
63339;BME280;70568;51.378;-1.342;2023-09-12T11:11:17;99961.67;;;17.00;34.07
63339;BME280;70568;51.378;-1.342;2023-09-12T11:13:43;99961.68;;;16.14;33.33
63339;BME280;70568;51.378;-1.342;2023-09-12T11:16:11;99964.16;;;18.79;31.66
63339;BME280;70568;51.378;-1.342;2023-09-12T11:19:12;99963.77;;;18.39;31.34
63339;BME280;70568;51.378;-1.342;2023-09-12T11:21:39;99964.69;;;18.72;32.30
63339;BME280;70568;51.378;-1.342;2023-09-12T11:24:07;99966.41;;;17.24;34.49
63339;BME280;70568;51.378;-1.342;2023-09-12T11:26:33;99967.05;;;18.45;33.08
63339;BME280;70568;51.378;-1.342;2023-09-12T11:29:10;99969.44;;;18.46;31.84
63339;BME280;70568;51.378;-1.342;2023-09-12T11:31:38;99969.22;;;17.85;32.00
63339;BME280;70568;51.378;-1.342;2023-09-12T11:34:08;99969.95;;;17.56;32.83
63339;BME280;70568;51.378;-1.342;2023-09-12T11:36:39;99972.66;;;17.32;32.28
63339;BME280;70568;51.378;-1.342;2023-09-12T11:39:22;99974.18;;;18.61;31.07
63339;BME280;70568;51.378;-1.342;2023-09-12T11:41:49;99971.76;;;17.49;31.65
63339;BME280;70568;51.378;-1.342;2023-09-12T11:44:17;99970.00;;;17.88;32.74
63339;BME280;70568;51.378;-1.342;2023-09-12T11:46:47;99967.24;;;19.11;31.78
63339;BME280;70568;51.378;-1.342;2023-09-12T11:49:15;99965.53;;;18.18;31.49
63339;BME280;70568;51.378;-1.342;2023-09-12T11:51:51;99964.98;;;18.08;32.34
63339;BME280;70568;51.378;-1.342;2023-09-12T11:54:19;99968.72;;;19.72;31.05
63339;BME280;70568;51.378;-1.342;2023-09-12T11:56:47;99969.98;;;19.12;31.44
63339;BME280;70568;51.378;-1.342;2023-09-12T11:59:15;99972.72;;;18.93;32.48
63339;BME280;70568;51.378;-1.342;2023-09-12T12:01:42;99969.98;;;17.50;33.01
63339;BME280;70568;51.378;-1.342;2023-09-12T12:04:09;99972.97;;;18.88;32.42
63339;BME280;70568;51.378;-1.342;2023-09-12T12:06:36;99973.91;;;19.01;32.97
63339;BME280;70568;51.378;-1.342;2023-09-12T12:09:03;99974.99;;;18.13;32.90
63339;BME280;70568;51.378;-1.342;2023-09-12T12:11:30;99975.48;;;18.70;32.95
63339;BME280;70568;51.378;-1.342;2023-09-12T12:13:56;99972.04;;;18.66;33.42
63339;BME280;70568;51.378;-1.342;2023-09-12T12:16:25;99972.52;;;16.80;34.20
63339;BME280;70568;51.378;-1.342;2023-09-12T12:18:52;99972.73;;;19.01;31.36
63339;BME280;70568;51.378;-1.342;2023-09-12T12:21:18;99974.69;;;17.97;32.11
63339;BME280;70568;51.378;-1.342;2023-09-12T12:23:45;99972.95;;;18.70;32.59
63339;BME280;70568;51.378;-1.342;2023-09-12T12:26:11;99967.41;;;16.69;32.02
63339;BME280;70568;51.378;-1.342;2023-09-12T12:28:40;99964.11;;;18.40;30.48
63339;BME280;70568;51.378;-1.342;2023-09-12T12:31:08;99962.66;;;20.13;29.53
63339;BME280;70568;51.378;-1.342;2023-09-12T12:33:35;99964.61;;;19.06;29.50
63339;BME280;70568;51.378;-1.342;2023-09-12T12:36:04;99968.22;;;20.43;30.27
63339;BME280;70568;51.378;-1.342;2023-09-12T12:38:34;99975.26;;;20.21;33.37
63339;BME280;70568;51.378;-1.342;2023-09-12T12:41:01;99978.48;;;18.29;35.46
63339;BME280;70568;51.378;-1.342;2023-09-12T12:43:27;99974.53;;;17.91;37.97
63339;BME280;70568;51.378;-1.342;2023-09-12T12:45:56;99975.10;;;16.36;38.80
63339;BME280;70568;51.378;-1.342;2023-09-12T12:48:30;99974.61;;;16.05;38.14
63339;BME280;70568;51.378;-1.342;2023-09-12T12:50:59;99971.22;;;17.39;37.85
63339;BME280;70568;51.378;-1.342;2023-09-12T12:53:43;99970.50;;;17.87;35.93